sensor_id;sensor_type;location;lat;lon;timestamp;temperature;humidity
18888;DHT22;9576;47.792;9.628;2022-10-31T00:01:54;9.60;99.90
18888;DHT22;9576;47.792;9.628;2022-10-31T00:04:56;9.60;99.90
18888;DHT22;9576;47.792;9.628;2022-10-31T00:07:58;9.50;99.90
18888;DHT22;9576;47.792;9.628;2022-10-31T00:11:02;9.50;99.90
18888;DHT22;9576;47.792;9.628;2022-10-31T00:14:04;9.50;99.90
18888;DHT22;9576;47.792;9.628;2022-10-31T00:17:06;9.50;99.90
18888;DHT22;9576;47.792;9.628;2022-10-31T00:20:09;9.50;99.90
18888;DHT22;9576;47.792;9.628;2022-10-31T00:23:11;9.50;99.90
18888;DHT22;9576;47.792;9.628;2022-10-31T00:26:15;9.40;99.90
18888;DHT22;9576;47.792;9.628;2022-10-31T00:29:17;9.30;99.90
18888;DHT22;9576;47.792;9.628;2022-10-31T00:32:18;9.20;99.90
18888;DHT22;9576;47.792;9.628;2022-10-31T00:35:20;9.20;99.90
18888;DHT22;9576;47.792;9.628;2022-10-31T00:38:22;9.20;99.90
18888;DHT22;9576;47.792;9.628;2022-10-31T00:41:26;9.20;99.90
18888;DHT22;9576;47.792;9.628;2022-10-31T00:44:28;9.20;99.90
18888;DHT22;9576;47.792;9.628;2022-10-31T00:47:30;9.20;99.90
18888;DHT22;9576;47.792;9.628;2022-10-31T00:50:32;9.10;99.90
18888;DHT22;9576;47.792;9.628;2022-10-31T00:53:34;9.10;99.90
18888;DHT22;9576;47.792;9.628;2022-10-31T00:56:37;9.10;99.90
18888;DHT22;9576;47.792;9.628;2022-10-31T00:59:39;9.10;99.90
18888;DHT22;9576;47.792;9.628;2022-10-31T01:02:41;9.10;99.90
18888;DHT22;9576;47.792;9.628;2022-10-31T01:05:43;9.10;99.90
18888;DHT22;9576;47.792;9.628;2022-10-31T01:08:47;9.10;99.90
18888;DHT22;9576;47.792;9.628;2022-10-31T01:11:50;9.10;99.90
18888;DHT22;9576;47.792;9.628;2022-10-31T01:14:52;9.10;99.90
18888;DHT22;9576;47.792;9.628;2022-10-31T01:17:54;9.10;99.90
18888;DHT22;9576;47.792;9.628;2022-10-31T01:21:04;9.10;99.90
18888;DHT22;9576;47.792;9.628;2022-10-31T01:24:07;9.00;99.90
18888;DHT22;9576;47.792;9.628;2022-10-31T01:27:10;8.90;99.90
18888;DHT22;9576;47.792;9.628;2022-10-31T01:30:12;8.90;99.90
18888;DHT22;9576;47.792;9.628;2022-10-31T01:33:14;8.90;99.90
18888;DHT22;9576;47.792;9.628;2022-10-31T01:36:18;8.90;99.90
18888;DHT22;9576;47.792;9.628;2022-10-31T01:39:20;8.90;99.90
18888;DHT22;9576;47.792;9.628;2022-10-31T01:42:23;8.80;99.90
18888;DHT22;9576;47.792;9.628;2022-10-31T01:45:25;8.80;99.90
18888;DHT22;9576;47.792;9.628;2022-10-31T01:48:28;8.80;99.90
18888;DHT22;9576;47.792;9.628;2022-10-31T01:51:35;8.80;99.90
18888;DHT22;9576;47.792;9.628;2022-10-31T01:54:41;8.90;99.90
18888;DHT22;9576;47.792;9.628;2022-10-31T01:57:48;8.90;99.90
18888;DHT22;9576;47.792;9.628;2022-10-31T02:00:55;8.90;99.90
18888;DHT22;9576;47.792;9.628;2022-10-31T02:03:57;8.90;99.90
18888;DHT22;9576;47.792;9.628;2022-10-31T02:07:03;8.90;99.90
18888;DHT22;9576;47.792;9.628;2022-10-31T02:10:07;8.90;99.90
18888;DHT22;9576;47.792;9.628;2022-10-31T02:13:11;8.90;99.90
18888;DHT22;9576;47.792;9.628;2022-10-31T02:16:13;8.90;99.90
18888;DHT22;9576;47.792;9.628;2022-10-31T02:19:19;9.00;99.90
18888;DHT22;9576;47.792;9.628;2022-10-31T02:22:26;9.00;99.90
18888;DHT22;9576;47.792;9.628;2022-10-31T02:25:51;9.00;99.90
18888;DHT22;9576;47.792;9.628;2022-10-31T02:29:41;9.10;99.90
18888;DHT22;9576;47.792;9.628;2022-10-31T02:32:58;9.20;99.90
18888;DHT22;9576;47.792;9.628;2022-10-31T02:36:07;9.20;99.90
18888;DHT22;9576;47.792;9.628;2022-10-31T02:39:15;9.30;99.90
18888;DHT22;9576;47.792;9.628;2022-10-31T02:42:26;9.30;99.90
18888;DHT22;9576;47.792;9.628;2022-10-31T02:45:35;9.30;99.90
18888;DHT22;9576;47.792;9.628;2022-10-31T02:48:43;9.20;99.90
18888;DHT22;9576;47.792;9.628;2022-10-31T02:51:46;9.10;99.90
18888;DHT22;9576;47.792;9.628;2022-10-31T02:54:48;9.10;99.90
18888;DHT22;9576;47.792;9.628;2022-10-31T02:57:53;9.10;99.90
18888;DHT22;9576;47.792;9.628;2022-10-31T03:01:13;9.10;99.90
18888;DHT22;9576;47.792;9.628;2022-10-31T03:04:44;9.20;99.90
18888;DHT22;9576;47.792;9.628;2022-10-31T03:07:57;9.30;99.90
18888;DHT22;9576;47.792;9.628;2022-10-31T03:11:02;9.30;99.90
18888;DHT22;9576;47.792;9.628;2022-10-31T03:14:09;9.40;99.90
18888;DHT22;9576;47.792;9.628;2022-10-31T03:17:15;9.40;99.90
18888;DHT22;9576;47.792;9.628;2022-10-31T03:20:26;9.40;99.90
18888;DHT22;9576;47.792;9.628;2022-10-31T03:23:30;9.30;99.90
18888;DHT22;9576;47.792;9.628;2022-10-31T03:26:35;9.20;99.90
18888;DHT22;9576;47.792;9.628;2022-10-31T03:29:39;9.10;99.90
18888;DHT22;9576;47.792;9.628;2022-10-31T03:32:43;9.10;99.90
18888;DHT22;9576;47.792;9.628;2022-10-31T03:35:51;9.20;99.90
18888;DHT22;9576;47.792;9.628;2022-10-31T03:38:55;9.20;99.90
18888;DHT22;9576;47.792;9.628;2022-10-31T03:42:02;9.20;99.90
18888;DHT22;9576;47.792;9.628;2022-10-31T03:45:10;9.30;99.90
18888;DHT22;9576;47.792;9.628;2022-10-31T03:48:15;9.30;99.90
18888;DHT22;9576;47.792;9.628;2022-10-31T03:51:22;9.40;99.90
18888;DHT22;9576;47.792;9.628;2022-10-31T03:54:30;9.40;99.90
18888;DHT22;9576;47.792;9.628;2022-10-31T03:57:36;9.50;99.90
18888;DHT22;9576;47.792;9.628;2022-10-31T04:00:42;9.50;99.90
18888;DHT22;9576;47.792;9.628;2022-10-31T04:03:46;9.50;99.90
18888;DHT22;9576;47.792;9.628;2022-10-31T04:06:50;9.50;99.90
18888;DHT22;9576;47.792;9.628;2022-10-31T04:09:53;9.50;99.90
18888;DHT22;9576;47.792;9.628;2022-10-31T04:13:01;9.50;99.90
18888;DHT22;9576;47.792;9.628;2022-10-31T04:16:04;9.50;99.90
18888;DHT22;9576;47.792;9.628;2022-10-31T04:19:06;9.50;99.90
18888;DHT22;9576;47.792;9.628;2022-10-31T04:22:10;9.50;99.90
18888;DHT22;9576;47.792;9.628;2022-10-31T04:25:12;9.50;99.90
18888;DHT22;9576;47.792;9.628;2022-10-31T04:28:14;9.50;99.90
18888;DHT22;9576;47.792;9.628;2022-10-31T04:31:15;9.40;99.90
18888;DHT22;9576;47.792;9.628;2022-10-31T04:34:17;9.40;99.90
18888;DHT22;9576;47.792;9.628;2022-10-31T04:37:21;9.40;99.90
18888;DHT22;9576;47.792;9.628;2022-10-31T04:40:22;9.20;99.90
18888;DHT22;9576;47.792;9.628;2022-10-31T04:43:24;9.20;99.90
18888;DHT22;9576;47.792;9.628;2022-10-31T04:46:26;9.20;99.90
18888;DHT22;9576;47.792;9.628;2022-10-31T04:49:28;9.30;99.90
18888;DHT22;9576;47.792;9.628;2022-10-31T04:52:32;9.30;99.90
18888;DHT22;9576;47.792;9.628;2022-10-31T04:55:35;9.20;99.90
18888;DHT22;9576;47.792;9.628;2022-10-31T04:58:37;9.20;99.90
18888;DHT22;9576;47.792;9.628;2022-10-31T05:01:39;9.20;99.90
18888;DHT22;9576;47.792;9.628;2022-10-31T05:04:41;9.00;99.90
18888;DHT22;9576;47.792;9.628;2022-10-31T05:07:46;8.90;99.90
18888;DHT22;9576;47.792;9.628;2022-10-31T05:10:48;8.90;99.90
18888;DHT22;9576;47.792;9.628;2022-10-31T05:13:50;8.90;99.90
18888;DHT22;9576;47.792;9.628;2022-10-31T05:16:51;8.90;99.90
18888;DHT22;9576;47.792;9.628;2022-10-31T05:19:53;8.90;99.90
18888;DHT22;9576;47.792;9.628;2022-10-31T05:22:57;8.90;99.90
18888;DHT22;9576;47.792;9.628;2022-10-31T05:25:59;8.90;99.90
18888;DHT22;9576;47.792;9.628;2022-10-31T05:29:01;8.90;99.90
18888;DHT22;9576;47.792;9.628;2022-10-31T05:32:03;8.90;99.90
18888;DHT22;9576;47.792;9.628;2022-10-31T05:35:06;8.90;99.90
18888;DHT22;9576;47.792;9.628;2022-10-31T05:38:10;9.00;99.90
18888;DHT22;9576;47.792;9.628;2022-10-31T05:41:12;9.00;99.90
18888;DHT22;9576;47.792;9.628;2022-10-31T05:44:14;9.00;99.90
18888;DHT22;9576;47.792;9.628;2022-10-31T05:47:16;9.00;99.90
18888;DHT22;9576;47.792;9.628;2022-10-31T05:50:18;9.00;99.90
18888;DHT22;9576;47.792;9.628;2022-10-31T05:53:21;9.00;99.90
18888;DHT22;9576;47.792;9.628;2022-10-31T05:56:23;9.10;99.90
18888;DHT22;9576;47.792;9.628;2022-10-31T05:59:25;9.10;99.90
18888;DHT22;9576;47.792;9.628;2022-10-31T06:02:27;9.10;99.90
18888;DHT22;9576;47.792;9.628;2022-10-31T06:05:33;9.10;99.90
18888;DHT22;9576;47.792;9.628;2022-10-31T06:08:36;9.10;99.90
18888;DHT22;9576;47.792;9.628;2022-10-31T06:11:38;9.00;99.90
18888;DHT22;9576;47.792;9.628;2022-10-31T06:14:40;9.10;99.90
18888;DHT22;9576;47.792;9.628;2022-10-31T06:17:42;9.10;99.90
18888;DHT22;9576;47.792;9.628;2022-10-31T06:20:44;9.10;99.90
18888;DHT22;9576;47.792;9.628;2022-10-31T06:23:47;9.00;99.90
18888;DHT22;9576;47.792;9.628;2022-10-31T06:26:49;9.00;99.90
18888;DHT22;9576;47.792;9.628;2022-10-31T06:29:51;9.00;99.90
18888;DHT22;9576;47.792;9.628;2022-10-31T06:32:53;9.00;99.90
18888;DHT22;9576;47.792;9.628;2022-10-31T06:35:55;8.90;99.90
18888;DHT22;9576;47.792;9.628;2022-10-31T06:39:00;8.90;99.90
18888;DHT22;9576;47.792;9.628;2022-10-31T06:42:02;8.90;99.90
18888;DHT22;9576;47.792;9.628;2022-10-31T06:45:05;8.90;99.90
18888;DHT22;9576;47.792;9.628;2022-10-31T06:48:07;8.90;99.90
18888;DHT22;9576;47.792;9.628;2022-10-31T06:51:09;9.00;99.90
18888;DHT22;9576;47.792;9.628;2022-10-31T06:54:12;9.00;99.90
18888;DHT22;9576;47.792;9.628;2022-10-31T06:57:14;8.90;99.90
18888;DHT22;9576;47.792;9.628;2022-10-31T07:00:17;9.10;99.90
18888;DHT22;9576;47.792;9.628;2022-10-31T07:03:18;9.10;99.90
18888;DHT22;9576;47.792;9.628;2022-10-31T07:06:20;9.10;99.90
18888;DHT22;9576;47.792;9.628;2022-10-31T07:09:24;9.10;99.90
18888;DHT22;9576;47.792;9.628;2022-10-31T07:12:26;9.20;99.90
18888;DHT22;9576;47.792;9.628;2022-10-31T07:15:30;9.20;99.90
18888;DHT22;9576;47.792;9.628;2022-10-31T07:18:34;9.30;99.90
18888;DHT22;9576;47.792;9.628;2022-10-31T07:21:36;9.30;99.90
18888;DHT22;9576;47.792;9.628;2022-10-31T07:24:39;9.40;99.90
18888;DHT22;9576;47.792;9.628;2022-10-31T07:27:42;9.40;99.90
18888;DHT22;9576;47.792;9.628;2022-10-31T07:30:49;9.50;99.90
18888;DHT22;9576;47.792;9.628;2022-10-31T07:33:51;9.50;99.90
18888;DHT22;9576;47.792;9.628;2022-10-31T07:36:53;9.60;99.90
18888;DHT22;9576;47.792;9.628;2022-10-31T07:39:56;9.70;99.90
18888;DHT22;9576;47.792;9.628;2022-10-31T07:42:58;9.70;99.90
18888;DHT22;9576;47.792;9.628;2022-10-31T07:46:00;9.80;99.90
18888;DHT22;9576;47.792;9.628;2022-10-31T07:49:02;9.90;99.90
18888;DHT22;9576;47.792;9.628;2022-10-31T07:52:04;10.00;99.90
18888;DHT22;9576;47.792;9.628;2022-10-31T07:55:08;10.10;99.90
18888;DHT22;9576;47.792;9.628;2022-10-31T07:58:11;10.00;99.90
18888;DHT22;9576;47.792;9.628;2022-10-31T08:01:13;10.00;99.90
18888;DHT22;9576;47.792;9.628;2022-10-31T08:04:15;9.90;99.90
18888;DHT22;9576;47.792;9.628;2022-10-31T08:07:17;10.00;99.90
18888;DHT22;9576;47.792;9.628;2022-10-31T08:10:21;10.00;99.90
18888;DHT22;9576;47.792;9.628;2022-10-31T08:13:24;10.00;99.90
18888;DHT22;9576;47.792;9.628;2022-10-31T08:16:27;10.10;99.90
18888;DHT22;9576;47.792;9.628;2022-10-31T08:19:28;10.10;99.90
18888;DHT22;9576;47.792;9.628;2022-10-31T08:22:30;10.30;99.90
18888;DHT22;9576;47.792;9.628;2022-10-31T08:25:34;10.40;99.90
18888;DHT22;9576;47.792;9.628;2022-10-31T08:28:37;10.40;99.90
18888;DHT22;9576;47.792;9.628;2022-10-31T08:31:38;10.40;99.90
18888;DHT22;9576;47.792;9.628;2022-10-31T08:34:40;10.40;99.90
18888;DHT22;9576;47.792;9.628;2022-10-31T08:37:42;10.50;99.90
18888;DHT22;9576;47.792;9.628;2022-10-31T08:40:48;10.50;99.90
18888;DHT22;9576;47.792;9.628;2022-10-31T08:43:50;10.60;99.90
18888;DHT22;9576;47.792;9.628;2022-10-31T08:46:53;10.70;99.90
18888;DHT22;9576;47.792;9.628;2022-10-31T08:49:55;10.70;99.90
18888;DHT22;9576;47.792;9.628;2022-10-31T08:53:00;10.90;99.90
18888;DHT22;9576;47.792;9.628;2022-10-31T08:56:04;11.00;99.90
18888;DHT22;9576;47.792;9.628;2022-10-31T08:59:06;11.10;99.90
18888;DHT22;9576;47.792;9.628;2022-10-31T09:02:08;11.20;99.90
18888;DHT22;9576;47.792;9.628;2022-10-31T09:05:10;11.40;99.90
18888;DHT22;9576;47.792;9.628;2022-10-31T09:08:12;11.50;99.90
18888;DHT22;9576;47.792;9.628;2022-10-31T09:11:16;11.60;99.90
18888;DHT22;9576;47.792;9.628;2022-10-31T09:14:19;11.70;99.90
18888;DHT22;9576;47.792;9.628;2022-10-31T09:17:22;11.80;99.90
18888;DHT22;9576;47.792;9.628;2022-10-31T09:20:24;11.90;99.90
18888;DHT22;9576;47.792;9.628;2022-10-31T09:23:26;12.00;99.90
18888;DHT22;9576;47.792;9.628;2022-10-31T09:26:30;12.10;99.90
18888;DHT22;9576;47.792;9.628;2022-10-31T09:29:32;12.00;99.90
18888;DHT22;9576;47.792;9.628;2022-10-31T09:32:34;12.00;99.90
18888;DHT22;9576;47.792;9.628;2022-10-31T09:35:36;12.10;99.90
18888;DHT22;9576;47.792;9.628;2022-10-31T09:38:38;12.20;99.90
18888;DHT22;9576;47.792;9.628;2022-10-31T09:42:01;12.30;99.90
18888;DHT22;9576;47.792;9.628;2022-10-31T09:45:08;12.30;99.90
18888;DHT22;9576;47.792;9.628;2022-10-31T09:48:35;12.40;99.90
18888;DHT22;9576;47.792;9.628;2022-10-31T09:51:41;12.40;99.90
18888;DHT22;9576;47.792;9.628;2022-10-31T09:54:47;12.30;99.90
18888;DHT22;9576;47.792;9.628;2022-10-31T09:57:52;12.30;99.90
18888;DHT22;9576;47.792;9.628;2022-10-31T10:00:58;12.30;99.90
18888;DHT22;9576;47.792;9.628;2022-10-31T10:04:05;12.40;99.90
18888;DHT22;9576;47.792;9.628;2022-10-31T10:07:16;12.40;99.90
18888;DHT22;9576;47.792;9.628;2022-10-31T10:10:27;12.40;99.90
18888;DHT22;9576;47.792;9.628;2022-10-31T10:13:42;12.50;99.90
18888;DHT22;9576;47.792;9.628;2022-10-31T10:17:00;12.70;99.90
18888;DHT22;9576;47.792;9.628;2022-10-31T10:20:16;12.90;99.90
18888;DHT22;9576;47.792;9.628;2022-10-31T10:23:32;12.90;99.90
18888;DHT22;9576;47.792;9.628;2022-10-31T10:26:38;13.00;99.90
18888;DHT22;9576;47.792;9.628;2022-10-31T10:29:44;12.90;99.90
18888;DHT22;9576;47.792;9.628;2022-10-31T10:32:49;12.90;99.90
18888;DHT22;9576;47.792;9.628;2022-10-31T10:35:54;13.00;99.90
18888;DHT22;9576;47.792;9.628;2022-10-31T10:38:59;12.90;99.90
18888;DHT22;9576;47.792;9.628;2022-10-31T10:42:09;12.80;99.90
18888;DHT22;9576;47.792;9.628;2022-10-31T10:45:31;12.80;99.90
18888;DHT22;9576;47.792;9.628;2022-10-31T10:48:56;12.90;99.90
18888;DHT22;9576;47.792;9.628;2022-10-31T10:52:06;13.20;99.90
18888;DHT22;9576;47.792;9.628;2022-10-31T10:55:14;13.30;99.90
18888;DHT22;9576;47.792;9.628;2022-10-31T10:58:18;13.40;99.90
18888;DHT22;9576;47.792;9.628;2022-10-31T11:01:22;13.60;99.90
18888;DHT22;9576;47.792;9.628;2022-10-31T11:04:29;13.90;99.90
18888;DHT22;9576;47.792;9.628;2022-10-31T11:07:38;14.10;99.90
18888;DHT22;9576;47.792;9.628;2022-10-31T11:10:40;14.10;99.90
18888;DHT22;9576;47.792;9.628;2022-10-31T11:13:44;14.10;99.90
18888;DHT22;9576;47.792;9.628;2022-10-31T11:16:51;14.20;99.90
18888;DHT22;9576;47.792;9.628;2022-10-31T11:20:03;14.30;99.90
18888;DHT22;9576;47.792;9.628;2022-10-31T11:23:17;14.50;99.90
18888;DHT22;9576;47.792;9.628;2022-10-31T11:26:20;14.40;99.90
18888;DHT22;9576;47.792;9.628;2022-10-31T11:29:23;14.40;99.90
18888;DHT22;9576;47.792;9.628;2022-10-31T11:32:27;14.50;99.90
18888;DHT22;9576;47.792;9.628;2022-10-31T11:35:30;14.70;99.90
18888;DHT22;9576;47.792;9.628;2022-10-31T11:38:40;14.80;99.90
18888;DHT22;9576;47.792;9.628;2022-10-31T11:41:43;15.00;99.90
18888;DHT22;9576;47.792;9.628;2022-10-31T11:44:46;15.50;99.90
18888;DHT22;9576;47.792;9.628;2022-10-31T11:47:50;15.70;99.90
18888;DHT22;9576;47.792;9.628;2022-10-31T11:50:55;15.60;99.90
18888;DHT22;9576;47.792;9.628;2022-10-31T11:53:58;15.50;99.90
18888;DHT22;9576;47.792;9.628;2022-10-31T11:57:02;15.50;99.90
18888;DHT22;9576;47.792;9.628;2022-10-31T12:00:20;15.30;99.90
18888;DHT22;9576;47.792;9.628;2022-10-31T12:03:58;15.00;99.90
18888;DHT22;9576;47.792;9.628;2022-10-31T12:07:01;14.70;99.90
18888;DHT22;9576;47.792;9.628;2022-10-31T12:10:10;14.30;99.90
18888;DHT22;9576;47.792;9.628;2022-10-31T12:13:28;14.10;99.90
18888;DHT22;9576;47.792;9.628;2022-10-31T12:16:35;13.80;99.90
18888;DHT22;9576;47.792;9.628;2022-10-31T12:19:42;13.50;99.90
18888;DHT22;9576;47.792;9.628;2022-10-31T12:22:52;13.50;99.90
18888;DHT22;9576;47.792;9.628;2022-10-31T12:26:05;13.40;99.90
18888;DHT22;9576;47.792;9.628;2022-10-31T12:29:21;13.40;99.90
18888;DHT22;9576;47.792;9.628;2022-10-31T12:32:36;13.40;99.90
18888;DHT22;9576;47.792;9.628;2022-10-31T12:35:44;13.30;99.90
18888;DHT22;9576;47.792;9.628;2022-10-31T12:42:21;13.20;99.90
18888;DHT22;9576;47.792;9.628;2022-10-31T12:45:41;13.30;99.90
18888;DHT22;9576;47.792;9.628;2022-10-31T12:49:14;13.50;99.90
18888;DHT22;9576;47.792;9.628;2022-10-31T12:52:38;13.70;99.90
18888;DHT22;9576;47.792;9.628;2022-10-31T12:55:52;13.80;99.90
18888;DHT22;9576;47.792;9.628;2022-10-31T12:58:59;14.00;99.90
18888;DHT22;9576;47.792;9.628;2022-10-31T13:02:09;14.20;99.90
18888;DHT22;9576;47.792;9.628;2022-10-31T13:05:18;14.30;99.90
18888;DHT22;9576;47.792;9.628;2022-10-31T13:08:28;14.30;99.90
18888;DHT22;9576;47.792;9.628;2022-10-31T13:11:35;14.50;99.90
18888;DHT22;9576;47.792;9.628;2022-10-31T13:14:39;14.40;99.90
18888;DHT22;9576;47.792;9.628;2022-10-31T13:17:46;14.50;99.90
18888;DHT22;9576;47.792;9.628;2022-10-31T13:20:51;14.90;99.90
18888;DHT22;9576;47.792;9.628;2022-10-31T13:23:57;15.80;99.90
18888;DHT22;9576;47.792;9.628;2022-10-31T13:27:03;16.60;99.90
18888;DHT22;9576;47.792;9.628;2022-10-31T13:30:14;17.30;99.90
18888;DHT22;9576;47.792;9.628;2022-10-31T13:33:19;17.50;99.90
18888;DHT22;9576;47.792;9.628;2022-10-31T13:36:29;17.40;99.90
18888;DHT22;9576;47.792;9.628;2022-10-31T13:40:02;17.10;99.90
18888;DHT22;9576;47.792;9.628;2022-10-31T13:43:14;16.90;99.90
18888;DHT22;9576;47.792;9.628;2022-10-31T13:46:24;17.50;99.90
18888;DHT22;9576;47.792;9.628;2022-10-31T13:49:37;18.90;99.90
18888;DHT22;9576;47.792;9.628;2022-10-31T13:52:39;20.30;99.90
18888;DHT22;9576;47.792;9.628;2022-10-31T13:55:44;21.60;99.90
18888;DHT22;9576;47.792;9.628;2022-10-31T13:59:19;21.60;99.90
18888;DHT22;9576;47.792;9.628;2022-10-31T14:02:26;22.20;99.90
18888;DHT22;9576;47.792;9.628;2022-10-31T14:05:31;23.10;99.90
18888;DHT22;9576;47.792;9.628;2022-10-31T14:08:34;23.10;99.90
18888;DHT22;9576;47.792;9.628;2022-10-31T14:11:38;23.50;99.90
18888;DHT22;9576;47.792;9.628;2022-10-31T14:14:45;23.50;99.90
18888;DHT22;9576;47.792;9.628;2022-10-31T14:17:50;23.50;99.90
18888;DHT22;9576;47.792;9.628;2022-10-31T14:20:53;23.40;99.90
18888;DHT22;9576;47.792;9.628;2022-10-31T14:23:55;24.10;99.90
18888;DHT22;9576;47.792;9.628;2022-10-31T14:27:00;24.40;99.90
18888;DHT22;9576;47.792;9.628;2022-10-31T14:30:18;24.80;99.90
18888;DHT22;9576;47.792;9.628;2022-10-31T14:33:25;25.30;99.90
18888;DHT22;9576;47.792;9.628;2022-10-31T14:36:34;25.60;99.90
18888;DHT22;9576;47.792;9.628;2022-10-31T14:39:47;25.90;99.90
18888;DHT22;9576;47.792;9.628;2022-10-31T14:43:08;26.10;99.90
18888;DHT22;9576;47.792;9.628;2022-10-31T14:46:21;25.80;99.90
18888;DHT22;9576;47.792;9.628;2022-10-31T14:49:38;25.50;99.90
18888;DHT22;9576;47.792;9.628;2022-10-31T14:52:46;24.70;99.90
18888;DHT22;9576;47.792;9.628;2022-10-31T14:55:51;23.60;99.90
18888;DHT22;9576;47.792;9.628;2022-10-31T14:58:57;22.80;99.90
18888;DHT22;9576;47.792;9.628;2022-10-31T15:02:07;22.30;99.90
18888;DHT22;9576;47.792;9.628;2022-10-31T15:05:12;21.90;99.90
18888;DHT22;9576;47.792;9.628;2022-10-31T15:08:27;21.30;99.90
18888;DHT22;9576;47.792;9.628;2022-10-31T15:11:37;20.50;99.90
18888;DHT22;9576;47.792;9.628;2022-10-31T15:14:40;19.90;99.90
18888;DHT22;9576;47.792;9.628;2022-10-31T15:17:45;19.30;99.90
18888;DHT22;9576;47.792;9.628;2022-10-31T15:20:50;18.70;99.90
18888;DHT22;9576;47.792;9.628;2022-10-31T15:23:54;18.10;99.90
18888;DHT22;9576;47.792;9.628;2022-10-31T15:26:57;17.60;99.90
18888;DHT22;9576;47.792;9.628;2022-10-31T15:30:00;17.10;99.90
18888;DHT22;9576;47.792;9.628;2022-10-31T15:33:02;16.60;99.90
18888;DHT22;9576;47.792;9.628;2022-10-31T15:36:04;16.30;99.90
18888;DHT22;9576;47.792;9.628;2022-10-31T15:39:09;15.90;99.90
18888;DHT22;9576;47.792;9.628;2022-10-31T15:42:20;15.60;99.90
18888;DHT22;9576;47.792;9.628;2022-10-31T15:45:25;15.40;99.90
18888;DHT22;9576;47.792;9.628;2022-10-31T15:48:28;15.10;99.90
18888;DHT22;9576;47.792;9.628;2022-10-31T15:51:33;14.90;99.90
18888;DHT22;9576;47.792;9.628;2022-10-31T15:57:42;14.60;99.90
18888;DHT22;9576;47.792;9.628;2022-10-31T16:00:58;14.40;99.90
18888;DHT22;9576;47.792;9.628;2022-10-31T16:04:04;14.20;99.90
18888;DHT22;9576;47.792;9.628;2022-10-31T16:07:13;13.90;99.90
18888;DHT22;9576;47.792;9.628;2022-10-31T16:10:23;13.80;99.90
18888;DHT22;9576;47.792;9.628;2022-10-31T16:13:29;13.60;99.90
18888;DHT22;9576;47.792;9.628;2022-10-31T16:16:33;13.50;99.90
18888;DHT22;9576;47.792;9.628;2022-10-31T16:19:42;13.30;99.90
18888;DHT22;9576;47.792;9.628;2022-10-31T16:22:49;13.20;99.90
18888;DHT22;9576;47.792;9.628;2022-10-31T16:25:52;13.10;99.90
18888;DHT22;9576;47.792;9.628;2022-10-31T16:28:55;13.00;99.90
18888;DHT22;9576;47.792;9.628;2022-10-31T16:31:59;12.80;99.90
18888;DHT22;9576;47.792;9.628;2022-10-31T16:35:21;12.60;99.90
18888;DHT22;9576;47.792;9.628;2022-10-31T16:38:24;12.50;99.90
18888;DHT22;9576;47.792;9.628;2022-10-31T16:41:26;12.50;99.90
18888;DHT22;9576;47.792;9.628;2022-10-31T16:44:28;12.40;99.90
18888;DHT22;9576;47.792;9.628;2022-10-31T16:47:32;12.30;99.90
18888;DHT22;9576;47.792;9.628;2022-10-31T16:50:33;12.30;99.90
18888;DHT22;9576;47.792;9.628;2022-10-31T16:53:35;12.20;99.90
18888;DHT22;9576;47.792;9.628;2022-10-31T16:56:38;12.20;99.90
18888;DHT22;9576;47.792;9.628;2022-10-31T16:59:40;12.10;99.90
18888;DHT22;9576;47.792;9.628;2022-10-31T17:02:43;12.10;99.90
18888;DHT22;9576;47.792;9.628;2022-10-31T17:05:46;12.00;99.90
18888;DHT22;9576;47.792;9.628;2022-10-31T17:08:48;12.00;99.90
18888;DHT22;9576;47.792;9.628;2022-10-31T17:11:51;11.90;99.90
18888;DHT22;9576;47.792;9.628;2022-10-31T17:14:54;11.90;99.90
18888;DHT22;9576;47.792;9.628;2022-10-31T17:17:57;11.80;99.90
18888;DHT22;9576;47.792;9.628;2022-10-31T17:21:01;11.70;99.90
18888;DHT22;9576;47.792;9.628;2022-10-31T17:24:04;11.70;99.90
18888;DHT22;9576;47.792;9.628;2022-10-31T17:27:06;11.70;99.90
18888;DHT22;9576;47.792;9.628;2022-10-31T17:30:10;11.50;99.90
18888;DHT22;9576;47.792;9.628;2022-10-31T17:33:15;11.50;99.90
18888;DHT22;9576;47.792;9.628;2022-10-31T17:36:17;11.50;99.90
18888;DHT22;9576;47.792;9.628;2022-10-31T17:39:19;11.40;99.90
18888;DHT22;9576;47.792;9.628;2022-10-31T17:42:21;11.40;99.90
18888;DHT22;9576;47.792;9.628;2022-10-31T17:45:25;11.30;99.90
18888;DHT22;9576;47.792;9.628;2022-10-31T17:48:28;11.30;99.90
18888;DHT22;9576;47.792;9.628;2022-10-31T17:51:30;11.30;99.90
18888;DHT22;9576;47.792;9.628;2022-10-31T17:54:32;11.30;99.90
18888;DHT22;9576;47.792;9.628;2022-10-31T17:57:35;11.20;99.90
18888;DHT22;9576;47.792;9.628;2022-10-31T18:00:37;11.20;99.90
18888;DHT22;9576;47.792;9.628;2022-10-31T18:03:41;11.20;99.90
18888;DHT22;9576;47.792;9.628;2022-10-31T18:06:43;11.20;99.90
18888;DHT22;9576;47.792;9.628;2022-10-31T18:09:48;11.10;99.90
18888;DHT22;9576;47.792;9.628;2022-10-31T18:12:50;11.10;99.90
18888;DHT22;9576;47.792;9.628;2022-10-31T18:15:52;11.10;99.90
18888;DHT22;9576;47.792;9.628;2022-10-31T18:18:56;11.00;99.90
18888;DHT22;9576;47.792;9.628;2022-10-31T18:22:01;11.00;99.90
18888;DHT22;9576;47.792;9.628;2022-10-31T18:25:04;11.00;99.90
18888;DHT22;9576;47.792;9.628;2022-10-31T18:28:06;11.00;99.90
18888;DHT22;9576;47.792;9.628;2022-10-31T18:31:08;10.90;99.90
18888;DHT22;9576;47.792;9.628;2022-10-31T18:34:11;10.90;99.90
18888;DHT22;9576;47.792;9.628;2022-10-31T18:37:13;10.90;99.90
18888;DHT22;9576;47.792;9.628;2022-10-31T18:40:15;10.80;99.90
18888;DHT22;9576;47.792;9.628;2022-10-31T18:43:17;10.80;99.90
18888;DHT22;9576;47.792;9.628;2022-10-31T18:46:19;10.70;99.90
18888;DHT22;9576;47.792;9.628;2022-10-31T18:49:23;10.70;99.90
18888;DHT22;9576;47.792;9.628;2022-10-31T18:52:25;10.70;99.90
18888;DHT22;9576;47.792;9.628;2022-10-31T18:55:27;10.60;99.90
18888;DHT22;9576;47.792;9.628;2022-10-31T18:58:29;10.60;99.90
18888;DHT22;9576;47.792;9.628;2022-10-31T19:01:31;10.60;99.90
18888;DHT22;9576;47.792;9.628;2022-10-31T19:04:34;10.50;99.90
18888;DHT22;9576;47.792;9.628;2022-10-31T19:07:36;10.50;99.90
18888;DHT22;9576;47.792;9.628;2022-10-31T19:10:39;10.50;99.90
18888;DHT22;9576;47.792;9.628;2022-10-31T19:13:41;10.40;99.90
18888;DHT22;9576;47.792;9.628;2022-10-31T19:16:43;10.40;99.90
18888;DHT22;9576;47.792;9.628;2022-10-31T19:19:46;10.30;99.90
18888;DHT22;9576;47.792;9.628;2022-10-31T19:22:48;10.30;99.90
18888;DHT22;9576;47.792;9.628;2022-10-31T19:25:50;10.20;99.90
18888;DHT22;9576;47.792;9.628;2022-10-31T19:28:53;10.20;99.90
18888;DHT22;9576;47.792;9.628;2022-10-31T19:31:55;10.10;99.90
18888;DHT22;9576;47.792;9.628;2022-10-31T19:34:59;10.10;99.90
18888;DHT22;9576;47.792;9.628;2022-10-31T19:38:00;10.10;99.90
18888;DHT22;9576;47.792;9.628;2022-10-31T19:41:06;10.00;99.90
18888;DHT22;9576;47.792;9.628;2022-10-31T19:44:08;10.00;99.90
18888;DHT22;9576;47.792;9.628;2022-10-31T19:47:10;10.00;99.90
18888;DHT22;9576;47.792;9.628;2022-10-31T19:50:13;10.00;99.90
18888;DHT22;9576;47.792;9.628;2022-10-31T19:53:15;10.00;99.90
18888;DHT22;9576;47.792;9.628;2022-10-31T19:56:19;9.90;99.90
18888;DHT22;9576;47.792;9.628;2022-10-31T19:59:21;9.90;99.90
18888;DHT22;9576;47.792;9.628;2022-10-31T20:02:23;9.90;99.90
18888;DHT22;9576;47.792;9.628;2022-10-31T20:05:27;9.90;99.90